KAIZ/AIZ METAR and TAF weather

Enter ICAO airport designator
Station Type Date Time Source
KAIZ METAR 2019/06/26 21:56 UTC NOAA

KAIZ 262156Z AUTO 20005KT 10SM CLR 26/20 A3010 RMK AO2 SLP184 T02560200


Station Type Date Time Source
KAIZ Decoded METAR 2019/06/26 21:56 UTC NOAA

Kaiser Lake Ozark, Lee C Fine Memorial Airport, MO, United States (KAIZ) 38-06N 092-33W
Jun 26, 2019 - 05:56 PM EDT / 2019.06.26 2156 UTC
Wind: from the SSW (200 degrees) at 6 MPH (5 KT):0
Visibility: 10 mile(s):0
Sky conditions: clear
Temperature: 78.1 F (25.6 C)
Dew Point: 68.0 F (20.0 C)
Relative Humidity: 71%
Pressure (altimeter): 30.1 in. Hg (1019 hPa)
ob: KAIZ 262156Z AUTO 20005KT 10SM CLR 26/20 A3010 RMK AO2 SLP184 T02560200
cycle: 22

Station Type Date Time Source
KAIZ TAF UTC NOAA

Error!

Example: see airport list